Time;durP1;ratioP1;P1;durP2;ratioP2;P2;SDS_P1;SDS_P2;PMS_P1;PMS_P2;Temp;Humidity;BMP_temperature;BMP_pressure;BME280_temperature;BME280_humidity;BME280_pressure;Samples;Min_cycle;Max_cycle;Signal;HPM_P1;HPM_P2
2022/04/16 00:00:55;;;;;;;18.33;12.98;;;;;;;12.61;63.18;100346.88;5048745;28;20408;-72
2022/04/16 00:03:21;;;;;;;19.77;13.23;;;;;;;12.70;62.31;100352.97;5047021;28;20041;-72
2022/04/16 00:05:53;;;;;;;16.30;12.18;;;;;;;12.66;61.81;100339.81;5038629;28;20476;-71
2022/04/16 00:08:23;;;;;;;18.88;11.75;;;;;;;12.56;62.23;100348.69;5035262;28;20135;-71
2022/04/16 00:10:49;;;;;;;18.23;12.20;;;;;;;12.40;63.46;100355.84;5036860;28;20072;-73
2022/04/16 00:13:16;;;;;;;13.55;11.27;;;;;;;12.39;64.85;100340.97;5036886;28;20072;-71
2022/04/16 00:15:43;;;;;;;19.85;12.20;;;;;;;12.33;65.04;100353.28;5036223;28;20369;-71
2022/04/16 00:18:09;;;;;;;16.45;12.07;;;;;;;12.50;63.63;100347.88;5035617;28;20033;-71
2022/04/16 00:20:35;;;;;;;25.83;13.10;;;;;;;12.67;63.55;100348.63;5037137;28;20039;-71
2022/04/16 00:23:00;;;;;;;16.52;12.77;;;;;;;12.66;63.67;100344.22;5035714;28;20045;-71
2022/04/16 00:25:26;;;;;;;17.52;14.15;;;;;;;12.73;60.70;100343.25;5035215;28;20052;-71
2022/04/16 00:27:59;;;;;;;21.42;13.15;;;;;;;12.71;60.67;100349.44;5036408;28;20044;-74
2022/04/16 00:30:25;;;;;;;17.17;11.98;;;;;;;12.68;63.33;100345.94;5035878;28;20057;-72
2022/04/16 00:32:55;;;;;;;17.88;12.50;;;;;;;12.74;63.34;100346.78;5036049;28;20040;-70
2022/04/16 00:35:21;;;;;;;16.85;12.80;;;;;;;12.58;65.74;100339.03;5035092;28;20048;-71
2022/04/16 00:37:47;;;;;;;22.05;13.38;;;;;;;12.52;64.23;100325.91;5036834;28;20057;-71
2022/04/16 00:40:13;;;;;;;19.70;12.27;;;;;;;12.42;65.43;100321.63;5036756;28;20095;-71
2022/04/16 00:42:43;;;;;;;16.33;12.43;;;;;;;12.47;64.94;100322.47;5036007;28;20070;-70
2022/04/16 00:45:10;;;;;;;26.65;14.45;;;;;;;12.41;65.01;100320.78;5033910;28;20033;-71
2022/04/16 00:47:36;;;;;;;18.42;12.55;;;;;;;12.30;64.92;100319.13;5035895;28;20025;-71
2022/04/16 00:50:08;;;;;;;13.10;11.10;;;;;;;12.02;65.67;100317.56;5037587;28;20129;-70
2022/04/16 00:52:40;;;;;;;15.07;12.40;;;;;;;12.04;66.79;100333.34;5034590;28;20060;-72
2022/04/16 00:55:08;;;;;;;24.27;13.20;;;;;;;11.97;66.39;100314.09;5035853;28;20563;-72
2022/04/16 00:57:36;;;;;;;17.85;13.68;;;;;;;11.97;66.54;100319.38;5037395;28;20111;-70
2022/04/16 01:00:04;;;;;;;30.70;13.55;;;;;;;12.03;67.41;100328.97;5035718;28;20098;-70
2022/04/16 01:02:29;;;;;;;20.13;13.68;;;;;;;11.99;67.69;100317.59;5034670;28;20041;-71
2022/04/16 01:04:55;;;;;;;23.40;15.07;;;;;;;12.02;67.14;100321.97;5036707;28;20106;-70
2022/04/16 01:07:24;;;;;;;18.73;13.43;;;;;;;12.17;66.47;100318.34;5035330;28;20045;-70
2022/04/16 01:09:50;;;;;;;33.42;22.05;;;;;;;12.13;67.62;100308.75;5035688;28;20080;-71
2022/04/16 01:12:15;;;;;;;28.63;17.85;;;;;;;12.06;67.30;100309.66;5036377;28;20509;-71
2022/04/16 01:14:41;;;;;;;17.02;13.73;;;;;;;12.07;67.72;100321.94;5034849;28;20033;-73
2022/04/16 01:17:07;;;;;;;24.15;13.95;;;;;;;11.99;66.27;100317.59;5035568;28;21472;-72
2022/04/16 01:19:34;;;;;;;17.52;13.65;;;;;;;12.13;67.41;100319.28;5036297;28;20053;-71
2022/04/16 01:22:00;;;;;;;19.98;13.57;;;;;;;12.14;67.61;100321.00;5033947;28;20045;-72
2022/04/16 01:24:25;;;;;;;18.25;13.15;;;;;;;12.09;67.70;100322.78;5036064;28;20040;-71
2022/04/16 01:26:51;;;;;;;30.63;14.00;;;;;;;11.84;67.19;100309.78;5036493;28;20041;-71
2022/04/16 01:29:17;;;;;;;22.08;13.88;;;;;;;11.88;68.46;100313.31;5036186;28;20052;-70
2022/04/16 01:31:43;;;;;;;21.35;14.82;;;;;;;12.10;66.87;100312.25;5034315;28;20555;-71
2022/04/16 01:34:08;;;;;;;18.80;13.52;;;;;;;11.97;65.87;100300.97;5034861;28;20045;-70
2022/04/16 01:36:34;;;;;;;19.98;14.43;;;;;;;12.06;65.28;100305.28;5036212;28;20440;-70
2022/04/16 01:39:01;;;;;;;30.77;14.45;;;;;;;11.92;65.11;100286.97;5019175;28;20033;-70
2022/04/16 01:41:30;;;;;;;18.55;13.10;;;;;;;11.88;65.32;100290.50;5036307;28;20037;-71
2022/04/16 01:43:56;;;;;;;29.13;14.23;;;;;;;11.98;66.01;100302.69;5018271;28;20491;-70
2022/04/16 01:46:22;;;;;;;26.63;15.32;;;;;;;11.94;66.27;100287.84;5034900;28;20041;-71
2022/04/16 01:48:53;;;;;;;16.77;13.98;;;;;;;11.94;66.58;100290.47;5034102;28;20136;-73
2022/04/16 01:54:05;;;;;;;26.25;13.98;;;;;;;11.95;67.89;100276.44;4748103;27;9304346;-70
2022/04/16 01:56:30;;;;;;;16.15;12.05;;;;;;;12.06;66.32;100279.00;5012814;28;20049;-71
2022/04/16 01:58:56;;;;;;;22.23;13.60;;;;;;;12.12;66.00;100294.69;5014062;28;20045;-70
2022/04/16 02:01:22;;;;;;;22.35;13.60;;;;;;;12.16;66.48;100285.91;5011633;28;20061;-72
2022/04/16 02:03:48;;;;;;;22.63;14.93;;;;;;;12.04;66.91;100294.78;5014134;28;20108;-72
2022/04/16 02:06:13;;;;;;;21.38;14.98;;;;;;;11.95;66.55;100292.22;5013213;28;20033;-72
2022/04/16 02:08:39;;;;;;;20.48;14.02;;;;;;;11.91;65.68;100286.97;5011196;28;20045;-73
2022/04/16 02:11:04;;;;;;;19.15;13.13;;;;;;;11.94;66.11;100290.47;5010925;28;20062;-74
2022/04/16 02:13:31;;;;;;;23.27;13.85;;;;;;;12.02;66.19;100288.66;5013662;28;20041;-72
2022/04/16 02:15:56;;;;;;;16.38;13.45;;;;;;;11.93;66.66;100290.47;5010414;28;20049;-71
2022/04/16 02:19:28;;;;;;;19.13;13.57;;;;;;;11.92;68.12;100291.38;4750814;27;8309137;-71
2022/04/16 02:23:17;;;;;;;24.17;15.25;;;;;;;12.00;68.89;100295.66;4756581;27;8346876;-73
2022/04/16 02:25:43;;;;;;;41.22;21.98;;;;;;;11.95;67.29;100288.72;5033425;28;20053;-71
2022/04/16 02:28:09;;;;;;;19.05;13.63;;;;;;;12.04;67.87;100294.78;5037505;28;20057;-70
2022/04/16 02:30:35;;;;;;;25.75;14.65;;;;;;;12.03;68.31;100290.41;5041403;28;20045;-70
2022/04/16 02:33:02;;;;;;;27.20;13.40;;;;;;;12.05;66.85;100290.38;5031616;28;20571;-71
2022/04/16 02:35:28;;;;;;;21.42;14.85;;;;;;;11.99;66.89;100275.53;5044182;28;20430;-73
2022/04/16 02:37:54;;;;;;;20.83;15.65;;;;;;;12.03;66.87;100290.41;5044144;28;20178;-71
2022/04/16 02:40:19;;;;;;;33.42;14.85;;;;;;;12.04;66.27;100293.91;5043572;28;20049;-72
2022/04/16 02:42:45;;;;;;;22.95;14.85;;;;;;;12.14;66.39;100303.44;5045468;28;20106;-71
2022/04/16 02:47:59;;;;;;;22.35;14.98;;;;;;;12.01;62.78;100323.72;5041593;28;21102;-72
2022/04/16 02:50:28;;;;;;;19.77;13.68;;;;;;;11.87;64.15;100324.66;5044232;28;21073;-71
2022/04/16 02:52:58;;;;;;;27.17;17.25;;;;;;;10.86;69.95;100339.13;5040754;28;20055;-75
2022/04/16 02:55:25;;;;;;;22.13;17.42;;;;;;;10.88;70.93;100359.25;5044487;28;20047;-73
2022/04/16 02:57:51;;;;;;;24.45;18.42;;;;;;;11.06;69.08;100350.47;5040088;28;20088;-71
2022/04/16 03:00:19;;;;;;;26.15;19.15;;;;;;;10.58;69.68;100352.28;5039825;28;20175;-72
2022/04/16 03:02:45;;;;;;;24.98;20.10;;;;;;;10.71;70.02;100367.16;5041466;28;20050;-70
2022/04/16 03:05:11;;;;;;;29.75;17.98;;;;;;;10.47;69.50;100373.31;5043084;28;20048;-71
2022/04/16 03:07:37;;;;;;;29.15;17.95;;;;;;;10.08;70.93;100367.13;5045177;28;20455;-73
2022/04/16 03:10:04;;;;;;;29.83;20.52;;;;;;;10.09;71.19;100361.03;5041950;28;20063;-71
2022/04/16 03:12:47;;;;;;;24.45;18.25;;;;;;;9.74;72.12;100332.13;5039883;28;20400;-72
2022/04/16 03:17:58;;;;;;;32.92;18.35;;;;;;;10.12;72.13;100375.88;5039748;28;20051;-70
2022/04/16 03:20:23;;;;;;;24.40;18.50;;;;;;;10.17;71.69;100379.38;5042372;28;20041;-70
2022/04/16 03:22:49;;;;;;;30.33;19.00;;;;;;;10.13;71.56;100373.25;5055660;28;20056;-70
2022/04/16 03:25:14;;;;;;;24.35;18.08;;;;;;;10.15;71.78;100392.47;5065844;28;20046;-72
2022/04/16 03:27:40;;;;;;;26.50;17.98;;;;;;;10.37;71.14;100383.78;5060361;28;20500;-73
2022/04/16 03:30:07;;;;;;;23.90;17.67;;;;;;;10.73;70.31;100396.91;5061090;28;20032;-70
2022/04/16 03:32:32;;;;;;;22.05;16.63;;;;;;;10.78;69.67;100404.78;5057064;28;20067;-70
2022/04/16 03:34:58;;;;;;;38.95;19.95;;;;;;;10.80;69.94;100397.78;5046423;28;20049;-70
2022/04/16 03:37:24;;;;;;;28.30;17.73;;;;;;;10.76;70.16;100396.03;5049207;28;20040;-70
2022/04/16 03:39:50;;;;;;;35.88;17.95;;;;;;;10.89;69.73;100395.13;5047988;28;20041;-71
2022/04/16 03:42:18;;;;;;;24.02;17.52;;;;;;;10.67;68.78;100393.41;5044689;28;20094;-71
2022/04/16 03:44:44;;;;;;;31.92;19.10;;;;;;;10.90;68.56;100396.00;5046146;28;20146;-70
2022/04/16 03:47:10;;;;;;;31.05;18.55;;;;;;;10.97;69.07;100397.75;5049437;28;20049;-69
2022/04/16 03:49:37;;;;;;;28.65;19.35;;;;;;;10.99;68.03;100403.88;5048538;28;20515;-73
2022/04/16 03:59:59;;;;;;;31.13;20.50;;;;;;;10.97;68.84;100398.59;4785251;27;8305776;-72
2022/04/16 04:02:14;;;;;;;36.00;19.45;;;;;;;11.25;68.49;100405.56;5027584;28;20052;-73
2022/04/16 04:04:40;;;;;;;25.73;19.48;;;;;;;11.09;69.06;100408.22;5031088;28;20045;-71
2022/04/16 04:07:06;;;;;;;29.02;19.05;;;;;;;11.11;68.74;100405.59;5030386;28;20053;-71
2022/04/16 04:11:10;;;;;;;25.05;19.27;;;;;;;11.19;68.89;100415.22;4732663;27;9321542;-71
2022/04/16 04:13:36;;;;;;;30.83;18.42;;;;;;;11.28;67.35;100398.53;5066855;28;20051;-71
2022/04/16 04:16:02;;;;;;;33.83;19.52;;;;;;;11.41;67.49;100418.63;5073170;28;20048;-71
2022/04/16 04:18:27;;;;;;;28.55;19.45;;;;;;;11.34;68.02;100432.66;5072463;28;20834;-73
2022/04/16 04:23:29;;;;;;;30.10;18.90;;;;;;;11.42;67.65;100435.25;4755474;27;8314144;-70
2022/04/16 04:25:54;;;;;;;23.00;17.73;;;;;;;11.61;65.72;100439.59;5026983;28;20081;-70
2022/04/16 04:28:20;;;;;;;27.75;19.58;;;;;;;11.78;65.85;100449.16;5033625;28;20132;-70
2022/04/16 04:30:45;;;;;;;39.30;21.92;;;;;;;11.68;64.46;100444.81;5043009;28;20045;-73
2022/04/16 04:33:11;;;;;;;28.60;20.73;;;;;;;11.64;63.93;100450.97;5042649;28;20040;-71
2022/04/16 04:35:36;;;;;;;27.05;18.70;;;;;;;11.74;63.11;100453.56;5034443;28;20061;-71
2022/04/16 04:38:01;;;;;;;28.13;21.55;;;;;;;11.77;63.51;100439.50;5036700;28;21699;-72
2022/04/16 04:40:29;;;;;;;30.33;20.33;;;;;;;11.82;63.17;100440.38;5026998;28;20060;-70
2022/04/16 04:42:54;;;;;;;29.55;20.45;;;;;;;11.98;62.46;100454.34;5023272;28;20489;-72
2022/04/16 04:45:20;;;;;;;41.58;20.73;;;;;;;11.66;63.15;100436.06;5023779;28;20441;-71
2022/04/16 04:47:46;;;;;;;24.27;19.80;;;;;;;11.99;62.98;100442.97;5023125;28;20049;-70
2022/04/16 04:50:11;;;;;;;22.88;18.30;;;;;;;11.98;62.61;100439.44;5028119;28;20516;-71
2022/04/16 04:53:58;;;;;;;32.10;19.30;;;;;;;12.14;62.77;100437.59;4790581;27;8423227;-71
2022/04/16 04:56:23;;;;;;;27.45;18.23;;;;;;;12.21;62.21;100441.94;5031766;28;20107;-73
2022/04/16 04:58:49;;;;;;;28.27;18.65;;;;;;;12.35;62.97;100456.78;5031363;28;21010;-71
2022/04/16 05:01:14;;;;;;;36.17;19.85;;;;;;;12.32;62.23;100443.66;5030262;28;20045;-71
2022/04/16 05:03:40;;;;;;;26.35;18.95;;;;;;;12.38;61.59;100439.19;5031399;28;20041;-71
2022/04/16 05:06:05;;;;;;;34.35;18.98;;;;;;;12.60;61.27;100447.81;5030514;28;20690;-70
2022/04/16 05:08:31;;;;;;;26.02;18.27;;;;;;;12.63;61.30;100442.53;5031958;28;20528;-72
2022/04/16 05:10:56;;;;;;;24.23;17.08;;;;;;;12.76;60.99;100438.03;5031688;28;20037;-70
2022/04/16 05:13:21;;;;;;;27.80;17.98;;;;;;;12.95;60.71;100428.22;5030349;28;20210;-69
2022/04/16 05:18:31;;;;;;;30.40;16.23;;;;;;;13.22;59.84;100432.31;4789002;27;8322939;-72
2022/04/16 05:20:56;;;;;;;27.70;15.75;;;;;;;13.23;59.66;100434.06;5021379;28;20997;-72
2022/04/16 05:23:24;;;;;;;29.05;15.73;;;;;;;13.59;58.93;100447.75;5017990;28;20076;-73
2022/04/16 05:28:23;;;;;;;21.52;12.88;;;;;;;13.63;60.08;100445.97;4705499;27;8300193;-72
2022/04/16 05:30:49;;;;;;;22.70;14.48;;;;;;;13.42;59.19;100441.81;4938336;28;20139;-71
2022/04/16 05:35:59;;;;;;;23.45;11.82;;;;;;;13.88;58.71;100442.13;4928463;28;20149;-71
2022/04/16 05:38:24;;;;;;;17.08;11.25;;;;;;;14.17;57.98;100442.63;4953488;28;20032;-71
2022/04/16 05:40:50;;;;;;;15.45;8.80;;;;;;;13.78;57.97;100429.06;4938733;28;20561;-71
2022/04/16 05:48:08;;;;;;;16.88;9.45;;;;;;;14.33;57.69;100441.50;4789249;27;8306842;-70
2022/04/16 05:53:59;;;;;;;19.98;10.25;;;;;;;14.62;56.97;100437.56;4786173;27;8329696;-70
2022/04/16 05:56:25;;;;;;;17.35;10.07;;;;;;;14.88;56.62;100434.50;5008908;28;20462;-71
2022/04/16 05:58:50;;;;;;;19.63;10.57;;;;;;;14.86;56.09;100416.00;5020817;28;20119;-72
2022/04/16 06:01:16;;;;;;;13.93;8.88;;;;;;;15.05;56.75;100419.19;5016249;28;20053;-72
2022/04/16 06:03:42;;;;;;;15.93;8.60;;;;;;;15.23;55.94;100430.34;5016334;28;20739;-71
2022/04/16 06:06:09;;;;;;;12.35;8.15;;;;;;;15.06;56.69;100422.72;5011939;28;20041;-70
2022/04/16 06:08:35;;;;;;;16.98;8.35;;;;;;;15.01;55.63;100420.16;5015153;28;20041;-72
2022/04/16 06:11:01;;;;;;;18.25;8.13;;;;;;;14.66;56.65;100436.63;5012930;28;20589;-71
2022/04/16 06:13:27;;;;;;;8.40;6.43;;;;;;;14.72;56.73;100441.78;5023128;28;20141;-70
2022/04/16 06:15:52;;;;;;;14.57;8.38;;;;;;;14.75;56.53;100429.41;5018086;28;20049;-72
2022/04/16 06:18:18;;;;;;;14.73;7.50;;;;;;;14.94;56.23;100442.31;5019981;28;20045;-69
2022/04/16 06:20:43;;;;;;;10.80;7.32;;;;;;;14.92;55.82;100431.75;5018896;28;20036;-71
2022/04/16 06:23:09;;;;;;;11.95;6.88;;;;;;;15.10;56.19;100433.22;5018901;28;20046;-70
2022/04/16 06:25:35;;;;;;;11.32;7.97;;;;;;;15.44;56.62;100427.28;5017883;28;20072;-69
2022/04/16 06:28:01;;;;;;;15.63;7.07;;;;;;;15.93;58.82;100439.53;5012175;28;20812;-73
2022/04/16 06:30:27;;;;;;;27.40;6.95;;;;;;;16.15;55.54;100431.09;5018263;28;20052;-72
2022/04/16 06:32:53;;;;;;;13.85;7.47;;;;;;;16.75;52.56;100435.84;5021969;28;20041;-72
2022/04/16 06:35:18;;;;;;;10.35;6.65;;;;;;;16.65;54.01;100435.22;5022318;28;20061;-70
2022/04/16 06:37:44;;;;;;;11.05;7.22;;;;;;;16.78;59.73;100435.75;5015519;28;20047;-72
2022/04/16 06:40:11;;;;;;;10.65;5.70;;;;;;;17.26;58.61;100435.44;5018892;28;20049;-71
2022/04/16 06:42:38;;;;;;;11.88;6.07;;;;;;;17.38;58.51;100436.00;5015122;28;20084;-70
2022/04/16 06:45:07;;;;;;;18.65;8.38;;;;;;;17.33;52.99;100460.00;5018673;28;20034;-71
2022/04/16 06:47:32;;;;;;;15.50;6.72;;;;;;;16.75;53.20;100464.13;5021057;28;20034;-71
2022/04/16 06:49:58;;;;;;;22.10;7.07;;;;;;;16.54;53.07;100466.38;5009382;28;20127;-71
2022/04/16 06:53:59;;;;;;;17.35;6.32;;;;;;;16.58;53.31;100457.47;4807462;27;8343276;-73
2022/04/16 06:56:24;;;;;;;8.50;5.38;;;;;;;16.84;53.76;100454.19;5023656;28;20971;-71
2022/04/16 06:58:50;;;;;;;24.80;6.15;;;;;;;16.93;53.73;100445.16;5025705;28;20186;-71
2022/04/16 07:01:16;;;;;;;7.53;5.80;;;;;;;16.88;51.97;100452.34;5022569;28;20828;-70
2022/04/16 07:03:41;;;;;;;10.10;5.47;;;;;;;16.78;54.16;100438.41;5024814;28;20046;-71
2022/04/16 07:06:08;;;;;;;11.65;6.95;;;;;;;16.61;52.81;100419.44;5024785;28;20071;-73
2022/04/16 07:08:33;;;;;;;8.60;4.70;;;;;;;16.61;53.31;100440.63;5019539;28;20482;-75
2022/04/16 07:10:59;;;;;;;12.27;5.75;;;;;;;17.58;55.47;100428.34;5017626;28;20067;-70
2022/04/16 07:13:24;;;;;;;14.30;6.10;;;;;;;17.34;51.45;100421.94;5018656;28;20772;-71
2022/04/16 07:15:50;;;;;;;12.93;6.22;;;;;;;17.13;53.22;100433.16;5020457;28;20045;-71
2022/04/16 07:18:15;;;;;;;10.82;6.35;;;;;;;16.82;52.50;100431.28;5017859;28;20049;-68
2022/04/16 07:20:42;;;;;;;11.68;4.95;;;;;;;17.21;53.46;100429.38;5019924;28;20058;-69
2022/04/16 07:23:08;;;;;;;9.02;5.55;;;;;;;17.04;52.27;100450.16;5021017;28;20050;-67
2022/04/16 07:25:34;;;;;;;12.80;5.70;;;;;;;16.81;51.96;100426.88;5019822;28;20100;-68
2022/04/16 07:28:00;;;;;;;10.82;5.47;;;;;;;16.79;52.91;100437.56;5019577;28;20045;-67
2022/04/16 07:30:27;;;;;;;10.77;6.05;;;;;;;16.82;52.32;100450.72;5018880;28;20726;-70
2022/04/16 07:32:53;;;;;;;9.77;5.68;;;;;;;17.30;53.06;100452.13;5023540;28;20041;-69
2022/04/16 07:35:19;;;;;;;10.23;5.70;;;;;;;17.35;51.79;100444.03;5019032;28;20064;-70
2022/04/16 07:37:44;;;;;;;7.45;5.50;;;;;;;17.50;51.71;100435.66;5021170;28;20170;-69
2022/04/16 07:40:12;;;;;;;8.63;5.90;;;;;;;17.71;52.11;100452.75;5031097;28;20167;-68
2022/04/16 07:42:37;;;;;;;9.25;5.10;;;;;;;17.42;52.85;100458.88;5040240;28;20051;-69
2022/04/16 07:45:03;;;;;;;15.68;6.47;;;;;;;17.76;52.95;100472.06;5041101;28;20040;-69
2022/04/16 07:47:29;;;;;;;11.18;5.05;;;;;;;17.87;52.11;100467.34;5040790;28;20056;-70
2022/04/16 07:49:54;;;;;;;9.32;5.93;;;;;;;17.80;51.94;100486.13;5040694;28;20130;-69
2022/04/16 07:54:00;;;;;;;9.77;5.65;;;;;;;17.67;52.06;100485.59;4790924;27;8430138;-70
2022/04/16 07:56:26;;;;;;;11.68;5.70;;;;;;;18.02;52.84;100497.88;5012761;28;20053;-67
2022/04/16 07:58:54;;;;;;;6.88;5.20;;;;;;;17.69;50.69;100483.78;5002183;28;20074;-70
2022/04/16 08:01:19;;;;;;;11.63;6.45;;;;;;;17.83;50.35;100486.94;4998919;28;20049;-70
2022/04/16 08:03:45;;;;;;;7.55;5.80;;;;;;;17.29;51.05;100472.47;4998492;28;20050;-70
2022/04/16 08:06:11;;;;;;;15.77;5.95;;;;;;;17.93;50.48;100476.91;4999928;28;20508;-70
2022/04/16 08:08:37;;;;;;;10.40;6.50;;;;;;;17.84;50.10;100475.41;5017133;28;20092;-72
2022/04/16 08:11:03;;;;;;;14.13;6.78;;;;;;;17.99;50.24;100490.03;5000974;28;20137;-71
2022/04/16 08:13:29;;;;;;;13.30;5.72;;;;;;;17.62;50.42;100490.16;5011804;28;20543;-73
2022/04/16 08:15:55;;;;;;;13.40;6.30;;;;;;;17.73;50.34;100491.59;5016785;28;20624;-70
2022/04/16 08:19:04;;;;;;;16.00;7.10;;;;;;;17.87;49.81;100459.38;4774851;27;8302506;-69
2022/04/16 08:21:32;;;;;;;10.90;6.43;;;;;;;17.38;49.37;100473.16;5036773;28;20045;-70
2022/04/16 08:24:13;;;;;;;8.05;5.47;;;;;;;17.59;49.30;100461.94;5050756;28;20032;-70
2022/04/16 08:26:40;;;;;;;9.30;5.35;;;;;;;17.91;50.55;100460.16;5051571;28;20353;-70
2022/04/16 08:29:12;;;;;;;23.33;7.38;;;;;;;17.81;51.15;100456.91;5050718;28;20117;-73
2022/04/16 08:31:37;;;;;;;17.13;8.13;;;;;;;17.81;51.22;100472.84;5052753;28;20048;-73
2022/04/16 08:34:03;;;;;;;14.25;7.97;;;;;;;17.58;50.44;100460.19;5051965;28;20045;-71
2022/04/16 08:36:29;;;;;;;14.82;6.63;;;;;;;17.56;51.10;100462.03;5051437;28;20053;-70
2022/04/16 08:38:54;;;;;;;11.80;6.25;;;;;;;17.75;50.89;100442.91;5051302;28;20126;-70
2022/04/16 08:41:22;;;;;;;12.23;6.25;;;;;;;17.98;50.10;100450.22;5052624;28;20053;-70
2022/04/16 08:43:48;;;;;;;15.90;7.95;;;;;;;18.16;49.95;100454.13;5051238;28;20564;-71
2022/04/16 08:46:16;;;;;;;11.07;6.32;;;;;;;17.79;49.86;100448.06;5048341;28;20059;-70
2022/04/16 08:49:22;;;;;;;13.15;6.22;;;;;;;17.86;49.50;100447.06;4766873;27;8314395;-70
2022/04/16 08:51:48;;;;;;;11.52;6.63;;;;;;;17.63;49.62;100439.72;5025914;28;20045;-70
2022/04/16 08:54:44;;;;;;;19.52;7.00;;;;;;;17.60;49.87;100438.91;4778272;27;8318567;-71
2022/04/16 08:57:09;;;;;;;14.20;6.80;;;;;;;17.75;50.09;100441.16;5036431;28;20429;-70
2022/04/16 09:00:56;;;;;;;7.88;5.90;;;;;;;17.98;50.02;100429.88;4782845;27;8338852;-71
2022/04/16 09:04:03;;;;;;;12.48;7.40;;;;;;;18.07;49.64;100413.63;4766678;27;8312088;-69
2022/04/16 09:10:15;;;;;;;16.85;7.43;;;;;;;18.04;50.00;100405.78;4784430;27;8320857;-71
2022/04/16 09:12:41;;;;;;;25.48;8.02;;;;;;;18.24;49.38;100393.66;5051417;28;20113;-71
2022/04/16 09:15:12;;;;;;;11.68;6.57;;;;;;;18.55;49.79;100413.00;5066680;28;20448;-70
2022/04/16 09:18:58;;;;;;;29.25;8.98;;;;;;;17.89;49.76;100398.31;4773719;27;8301003;-70
2022/04/16 09:21:25;;;;;;;20.45;8.15;;;;;;;18.17;49.89;100406.28;5034386;28;20128;-70
2022/04/16 09:27:50;;;;;;;11.15;5.68;;;;;;;18.08;51.34;100404.78;4738560;27;8325249;-70
2022/04/16 09:30:30;;;;;;;16.17;8.18;;;;;;;18.34;49.56;100397.75;4998986;28;20096;-72
2022/04/16 09:32:57;;;;;;;10.07;6.35;;;;;;;18.22;50.31;100395.50;4986243;28;20402;-79
2022/04/16 09:35:35;;;;;;;8.98;6.40;;;;;;;18.34;49.37;100403.94;4990309;28;20057;-79
2022/04/16 09:38:02;;;;;;;8.35;6.38;;;;;;;18.77;48.25;100410.50;4995054;28;20061;-79
2022/04/16 09:40:32;;;;;;;13.93;6.82;;;;;;;18.74;48.19;100404.41;4995521;28;20509;-79
2022/04/16 09:43:04;;;;;;;13.63;6.88;;;;;;;19.23;48.03;100396.56;4991518;28;20054;-78
2022/04/16 09:51:05;;;;;;;11.20;6.43;;;;;;;19.32;48.52;100398.88;4799580;27;8325574;-70
2022/04/16 09:56:05;;;;;;;14.20;6.55;;;;;;;19.70;48.19;100388.63;4750547;27;8343971;-71
2022/04/16 09:58:37;;;;;;;8.30;6.18;;;;;;;20.11;45.97;100402.13;5032404;28;20115;-73
2022/04/16 10:01:03;;;;;;;12.68;8.10;;;;;;;19.57;46.73;100393.50;5029620;28;20053;-70
2022/04/16 10:03:29;;;;;;;11.50;6.60;;;;;;;18.74;48.11;100396.44;5033131;28;20052;-70
2022/04/16 10:05:58;;;;;;;10.55;6.78;;;;;;;19.54;46.19;100377.66;5031291;28;20033;-73
2022/04/16 10:08:25;;;;;;;7.30;5.35;;;;;;;19.78;46.57;100368.78;5011227;28;20162;-71
2022/04/16 10:10:55;;;;;;;10.80;6.85;;;;;;;19.52;46.96;100376.84;5011333;28;20065;-70
2022/04/16 10:13:22;;;;;;;13.57;7.00;;;;;;;19.68;46.20;100378.03;5011138;28;20057;-70
2022/04/16 10:16:07;;;;;;;11.85;7.50;;;;;;;19.73;46.22;100372.53;5012508;28;20054;-70
2022/04/16 10:18:35;;;;;;;16.58;7.70;;;;;;;19.84;45.51;100378.31;5007065;28;20058;-84
2022/04/16 10:21:02;;;;;;;10.80;7.45;;;;;;;19.67;46.42;100365.63;5012012;28;20041;-85
2022/04/16 10:23:40;;;;;;;9.63;6.32;;;;;;;19.07;46.87;100366.97;5012114;28;20045;-86
2022/04/16 10:26:06;;;;;;;9.50;6.35;;;;;;;18.61;48.90;100371.19;5030902;28;20125;-85
2022/04/16 10:28:37;;;;;;;10.75;6.63;;;;;;;19.16;47.84;100358.66;5030866;28;20051;-85
2022/04/16 10:31:03;;;;;;;12.95;7.80;;;;;;;19.06;47.64;100366.09;5030068;28;20128;-80
2022/04/16 10:33:28;;;;;;;12.65;7.90;;;;;;;20.08;46.00;100356.97;5030682;28;20378;-80
2022/04/16 10:36:02;;;;;;;7.50;5.85;;;;;;;20.47;45.86;100362.47;5032063;28;20120;-81
2022/04/16 10:38:40;;;;;;;10.27;7.28;;;;;;;20.05;46.28;100367.75;5029446;28;20073;-81
2022/04/16 10:41:19;;;;;;;10.75;6.68;;;;;;;20.00;46.11;100357.28;5028665;28;20699;-82
2022/04/16 10:43:57;;;;;;;10.32;6.18;;;;;;;20.12;45.95;100355.91;5031570;28;20045;-81
2022/04/16 10:46:23;;;;;;;7.07;5.03;;;;;;;20.19;46.50;100370.72;5030758;28;20060;-82
2022/04/16 10:48:49;;;;;;;9.13;7.20;;;;;;;20.02;46.15;100364.28;5032171;28;20091;-81
2022/04/16 10:51:21;;;;;;;11.25;7.32;;;;;;;20.11;47.55;100364.81;5030513;28;20504;-82
2022/04/16 10:56:59;;;;;;;7.55;5.70;;;;;;;20.95;43.65;100363.97;4799278;27;8325961;-82
2022/04/16 10:59:42;;;;;;;12.80;7.32;;;;;;;21.86;43.26;100370.56;5033429;28;20058;-83
2022/04/16 11:02:25;;;;;;;9.75;7.13;;;;;;;21.73;41.80;100362.28;5032871;28;20171;-81
2022/04/16 11:05:11;;;;;;;9.90;7.10;;;;;;;20.91;41.43;100362.41;5032764;28;20053;-81
2022/04/16 11:07:38;;;;;;;12.82;7.28;;;;;;;20.76;43.71;100347.03;5035359;28;20049;-81
2022/04/16 11:10:21;;;;;;;13.43;7.20;;;;;;;20.90;42.70;100355.31;5033307;28;20128;-82
2022/04/16 11:12:48;;;;;;;15.65;5.93;;;;;;;20.71;44.17;100351.72;5034850;28;20045;-82
2022/04/16 11:15:18;;;;;;;7.80;5.90;;;;;;;21.40;42.70;100340.66;5045805;28;20049;-81
2022/04/16 11:17:43;;;;;;;11.40;6.90;;;;;;;21.37;43.61;100348.78;5040828;28;20033;-78
2022/04/16 11:20:09;;;;;;;14.30;7.95;;;;;;;21.59;42.09;100351.38;5044345;28;22109;-81
2022/04/16 11:22:35;;;;;;;10.00;5.70;;;;;;;20.89;42.54;100347.41;5044945;28;20044;-82
2022/04/16 11:25:05;;;;;;;9.23;6.53;;;;;;;20.81;43.96;100339.72;5043075;28;20149;-81
2022/04/16 11:36:00;;;;;;;16.23;8.68;;;;;;;21.26;43.21;100331.47;5043352;28;20064;-82
2022/04/16 11:38:31;;;;;;;15.18;7.20;;;;;;;20.29;44.93;100334.75;5032870;28;20103;-81
2022/04/16 11:40:57;;;;;;;24.35;9.38;;;;;;;20.90;42.60;100347.31;5015251;28;20132;-81
2022/04/16 11:43:25;;;;;;;7.68;6.10;;;;;;;20.79;43.73;100325.56;5012960;28;20053;-81
2022/04/16 11:45:51;;;;;;;11.60;7.18;;;;;;;20.59;42.35;100326.44;5013641;28;20053;-81
2022/04/16 11:48:17;;;;;;;29.30;16.48;;;;;;;20.88;42.98;100322.50;5014367;28;20056;-82
2022/04/16 11:50:45;;;;;;;10.07;6.95;;;;;;;20.70;43.61;100332.19;5034517;28;20033;-82
2022/04/16 11:53:12;;;;;;;17.42;7.57;;;;;;;20.33;43.84;100328.38;5033404;28;20072;-80
2022/04/16 12:00:07;;;;;;;12.75;6.63;;;;;;;20.35;43.16;100329.19;4803885;27;8318409;-81
2022/04/16 12:02:38;;;;;;;10.80;5.60;;;;;;;20.44;42.89;100318.16;5036641;28;20049;-81
2022/04/16 12:05:11;;;;;;;10.02;6.63;;;;;;;20.94;43.11;100324.91;5032494;28;20053;-82
2022/04/16 12:07:39;;;;;;;32.17;8.13;;;;;;;21.29;42.41;100319.78;5018117;28;20045;-81
2022/04/16 12:10:05;;;;;;;9.48;7.13;;;;;;;19.97;42.84;100320.97;5020275;28;20109;-82
2022/04/16 12:12:41;;;;;;;25.85;8.18;;;;;;;20.07;44.39;100315.28;5023290;28;20119;-82
2022/04/16 12:15:07;;;;;;;14.43;6.40;;;;;;;20.13;43.76;100301.69;5021207;28;20040;-81
2022/04/16 12:17:33;;;;;;;13.88;7.25;;;;;;;20.58;43.29;100309.59;5022254;28;20440;-80
2022/04/16 12:20:05;;;;;;;8.43;5.82;;;;;;;20.95;43.16;100304.44;5035821;28;20049;-80
2022/04/16 12:22:44;;;;;;;8.55;6.47;;;;;;;20.81;42.61;100310.38;5028067;28;20041;-81
2022/04/16 12:25:11;;;;;;;9.10;5.95;;;;;;;20.93;42.56;100295.63;5029652;28;20072;-81
2022/04/16 12:27:48;;;;;;;8.45;6.15;;;;;;;20.35;43.60;100288.34;5027623;28;20052;-82
2022/04/16 12:30:16;;;;;;;8.52;6.55;;;;;;;20.38;43.88;100291.75;5005382;28;20486;-81
2022/04/16 12:33:10;;;;;;;10.38;6.72;;;;;;;20.22;42.46;100290.66;5047597;28;20064;-83